Airfield :
LOGIN :

Register | Disclaimer

   EN    FR    IT 

 










Legend :    VFR   Marginal VFR   IFR   Intensive IFR   Very Intensive IFR
Visi :
Ceiling :
>= 8 km
>= 3000ft
5 to 8 km
1000 to 3000 ft
1500m to 5 km
500 to 1000 ft
800 to 1500m
200 to 500 ft
< 800m
< 200 ft
Symbols :   Thunderstorms  Fog  Heavy snow  Heavy precipitations  Wind > 20 kt
SIGMETs :     Misc.  Thunderstorms  Icing  Turbulence  Mountain Waves  Volcanic Ashes







- Airport Elevation : 1234 ft
- IATA code : LUX


ELLX - Luxembourg Findel

CURRENT METAR :
  • 210820Z 10006KT 040V150 CAVOK 17/11 Q1015 NOSIG

EXPIRED METARs :
  • 210750Z 06009KT 040V100 CAVOK 16/10 Q1015 NOSIG
  • 210720Z AUTO 06009KT 030V090 9999 NCD 15/09 Q1015 NOSIG
  • 210650Z 06011KT CAVOK 15/09 Q1015 NOSIG
  • 210620Z 05012KT CAVOK 14/09 Q1015 NOSIG
  • 210550Z 05011KT CAVOK 13/09 Q1015 NOSIG

TAF TAF ELLX
Valid from the 21 at 06:00 until the 22 at 12:00 UTC


210500Z 2106/2212 05011KT CAVOK
BECMG 2107/2109 12007KT SCT035
TEMPO 2113/2122 7000 -SHRA SCT030TCU BKN035
PROB30
TEMPO 2115/2120 4000 TSRA BKN030CB
BECMG 2202/2204 22005KT 5000 BR SCT007
BECMG 2207/2209 9999 FEW030TCU SCT035
ATIS : +352 4798 27300
Met : +352 4798 27010 / 27050
No reported NOTAMs for that airfield.



MET'MAP, your aeronautical weather chart ! - Copyright ORBIFLY December 2007 - Disclaimer

ORBIFLY MET'MAP TEAM :

Programming & Development : Alexandra Zaïnal
Concept & Development : Baudouin d'Aumeries
Co-Development & Prog : Marc-Olivier Méhu
Technical & hardware support : Manuel Goepfert

Contact : metmap@orbifly.com




SOURCES & CREDITS :

   NOAA